MMTC/TRC METAR and TAF weather

Enter ICAO airport designator
Station Type Date Time Source
MMTC METAR 2020/09/21 03:44 UTC NOAA

MMTC 210344Z 30003KT 10SM BKN110 26/13 A3011 RMK 8/070


Station Type Date Time Source
MMTC Decoded METAR 2020/09/21 03:44 UTC NOAA

Torreon, Coah., Mexico (MMTC) 25-32N 103-27W 1150M
Sep 20, 2020 - 11:44 PM EDT / 2020.09.21 0344 UTC
Wind: from the WNW (300 degrees) at 3 MPH (3 KT):0
Visibility: 10 mile(s):0
Sky conditions: mostly cloudy
Temperature: 78 F (26 C)
Dew Point: 55 F (13 C)
Relative Humidity: 44%
Pressure (altimeter): 30.11 in. Hg (1019 hPa)
ob: MMTC 210344Z 30003KT 10SM BKN110 26/13 A3011 RMK 8/070
cycle: 3

Station Type Date Time Source
MMTC TAF 2020/09/21 06:59 UTC NOAA

TAF MMTC 210359Z 2106/2206 30005KT P6SM BKN100
FM211800 03010KT P6SM SCT030
FM220300 03005KT P6SM SKC

Example: see airport list